createdAt,value
2022-08-22T00:01:44.430Z,100106.28
2022-08-22T00:02:53.053Z,100074.72
2022-08-22T00:03:06.551Z,100095.34
2022-08-22T00:06:58.453Z,100114.97
2022-08-22T00:12:18.162Z,100115.31
2022-08-22T00:17:49.962Z,100107.00
2022-08-22T00:23:11.591Z,100112.03
2022-08-22T00:28:21.509Z,100125.75
2022-08-22T00:33:47.758Z,100121.88
2022-08-22T00:39:11.820Z,100111.69
2022-08-22T00:44:51.885Z,100121.91
2022-08-22T00:50:17.216Z,100113.91
2022-08-22T00:55:46.279Z,100113.44
2022-08-22T01:00:56.105Z,100117.19
2022-08-22T01:06:31.987Z,100115.00
2022-08-22T01:12:11.953Z,100119.56
2022-08-22T01:17:26.017Z,100117.44
2022-08-22T01:23:05.211Z,100129.78
2022-08-22T01:28:26.776Z,100127.28
2022-08-22T01:33:48.118Z,100143.88
2022-08-22T01:39:25.853Z,100143.72
2022-08-22T01:44:30.512Z,100133.09
2022-08-22T01:49:39.807Z,100133.19
2022-08-22T01:55:13.772Z,100135.75
2022-08-22T02:00:19.787Z,100147.78
2022-08-22T02:05:53.490Z,100139.19
2022-08-22T02:11:10.818Z,100126.88
2022-08-22T02:16:22.713Z,100120.28
2022-08-22T02:21:47.062Z,100126.38
2022-08-22T02:27:24.013Z,100119.88
2022-08-22T02:32:41.026Z,100120.66
2022-08-22T02:37:48.898Z,100131.84
2022-08-22T02:43:09.197Z,100125.78
2022-08-22T02:48:20.384Z,100126.06
2022-08-22T02:53:34.535Z,100125.25
2022-08-22T02:58:51.659Z,100101.47
2022-08-22T03:04:21.562Z,100125.09
2022-08-22T03:09:30.104Z,100131.97
2022-08-22T03:14:51.397Z,100136.53
2022-08-22T03:20:25.617Z,100148.47
2022-08-22T03:26:02.088Z,100156.50
2022-08-22T03:31:19.211Z,100151.09
2022-08-22T03:36:28.472Z,100146.59
2022-08-22T03:41:49.585Z,100152.56
2022-08-22T03:47:07.664Z,100156.50
2022-08-22T03:52:12.617Z,100154.09
2022-08-22T03:57:44.308Z,100153.34
2022-08-22T04:02:58.663Z,100143.16
2022-08-22T04:08:33.597Z,100152.44
2022-08-22T04:13:48.771Z,100162.44
2022-08-22T04:19:09.247Z,100155.28
2022-08-22T04:24:30.178Z,100151.09
2022-08-22T04:29:55.358Z,100153.50
2022-08-22T04:35:11.887Z,100160.75
2022-08-22T04:40:34.167Z,100147.72
2022-08-22T04:45:45.559Z,100150.75
2022-08-22T04:50:51.571Z,100149.44
2022-08-22T04:56:07.641Z,100143.84
2022-08-22T05:01:21.057Z,100154.22
2022-08-22T05:06:27.466Z,100160.16
2022-08-22T05:11:33.395Z,100154.28
2022-08-22T05:16:42.710Z,100143.41
2022-08-22T05:21:48.155Z,100147.75
2022-08-22T05:26:55.930Z,100158.41
2022-08-22T05:32:02.627Z,100140.22
2022-08-22T05:37:04.841Z,100131.19
2022-08-22T05:42:16.097Z,100137.19
2022-08-22T05:47:22.212Z,100138.72
2022-08-22T05:52:41.074Z,100148.03
2022-08-22T05:57:50.468Z,100139.94
2022-08-22T06:03:22.573Z,100136.41
2022-08-22T06:08:31.858Z,100133.50
2022-08-22T06:13:47.403Z,100142.22
2022-08-22T06:18:52.480Z,100140.41
2022-08-22T06:24:00.088Z,100142.97
2022-08-22T06:29:03.118Z,100138.88
2022-08-22T06:34:10.951Z,100144.19
2022-08-22T06:39:18.974Z,100149.06
2022-08-22T06:44:27.629Z,100146.50
2022-08-22T06:49:32.738Z,100144.94
2022-08-22T06:54:39.015Z,100141.44
2022-08-22T06:59:44.028Z,100140.09
2022-08-22T07:04:49.296Z,100130.78
2022-08-22T07:09:55.546Z,100131.63
2022-08-22T07:15:37.327Z,100144.16
2022-08-22T07:20:46.712Z,100150.34
2022-08-22T07:26:22.411Z,100159.50
2022-08-22T07:31:51.287Z,100154.75
2022-08-22T07:37:05.789Z,100158.69
2022-08-22T07:42:17.045Z,100159.44
2022-08-22T07:47:26.353Z,100153.25
2022-08-22T07:52:37.267Z,100156.75
2022-08-22T07:57:47.561Z,100138.88
2022-08-22T08:02:53.363Z,100163.47
2022-08-22T08:07:56.605Z,100152.59
2022-08-22T08:13:03.776Z,100161.38
2022-08-22T08:18:11.835Z,100160.41
2022-08-22T08:23:23.400Z,100141.91
2022-08-22T08:28:36.125Z,100153.91
2022-08-22T08:33:41.376Z,100148.56
2022-08-22T08:38:54.131Z,100143.50
2022-08-22T08:44:07.763Z,100140.84
2022-08-22T08:49:24.162Z,100149.56
2022-08-22T08:54:45.107Z,100154.81
2022-08-22T08:59:52.247Z,100146.44
2022-08-22T09:05:26.536Z,100144.97
2022-08-22T09:10:53.633Z,100140.94
2022-08-22T09:16:10.611Z,100145.91
2022-08-22T09:21:42.480Z,100149.72
2022-08-22T09:27:02.104Z,100148.34
2022-08-22T09:32:29.631Z,100151.63
2022-08-22T09:38:09.197Z,100156.38
2022-08-22T09:43:21.137Z,100149.75
2022-08-22T09:48:53.845Z,100148.09
2022-08-22T09:54:08.612Z,100139.59
2022-08-22T09:59:14.788Z,100140.34
2022-08-22T10:04:25.887Z,100148.59
2022-08-22T10:10:07.082Z,100136.25
2022-08-22T10:15:23.388Z,100138.38
2022-08-22T10:20:34.842Z,100143.19
2022-08-22T10:25:42.345Z,100140.06
2022-08-22T10:31:01.002Z,100155.91
2022-08-22T10:36:11.999Z,100140.41
2022-08-22T10:41:26.461Z,100138.72
2022-08-22T10:46:42.220Z,100132.88
2022-08-22T10:52:17.277Z,100144.97
2022-08-22T10:58:01.099Z,100135.06
2022-08-22T11:03:23.194Z,100138.13
2022-08-22T11:08:35.392Z,100143.44
2022-08-22T11:14:06.945Z,100130.25
2022-08-22T11:19:16.707Z,100143.19
2022-08-22T11:24:35.764Z,100131.31
2022-08-22T11:30:07.004Z,100121.13
2022-08-22T11:35:26.020Z,100128.19
2022-08-22T11:40:55.790Z,100107.34
2022-08-22T11:46:01.908Z,100107.59
2022-08-22T11:51:13.609Z,100094.03
2022-08-22T11:56:33.067Z,100104.84
2022-08-22T12:01:47.940Z,100091.69
2022-08-22T12:07:01.458Z,100089.59
2022-08-22T12:12:12.781Z,100113.91
2022-08-22T12:17:50.674Z,100094.31
2022-08-22T12:23:05.299Z,100091.97
2022-08-22T12:28:23.041Z,100088.22
2022-08-22T12:33:44.810Z,100094.75
2022-08-22T12:39:07.714Z,100089.69
2022-08-22T12:44:18.991Z,100095.84
2022-08-22T12:49:21.075Z,100099.94
2022-08-22T12:54:36.270Z,100099.97
2022-08-22T12:59:45.843Z,100107.25
2022-08-22T13:04:55.839Z,100102.22
2022-08-22T13:10:22.925Z,100113.94
2022-08-22T13:15:28.318Z,100102.00
2022-08-22T13:20:45.132Z,100093.66
2022-08-22T13:26:03.558Z,100103.53
2022-08-22T13:31:21.230Z,100109.84
2022-08-22T13:36:24.230Z,100102.53
2022-08-22T13:41:33.172Z,100097.06
2022-08-22T13:46:44.509Z,100085.97
2022-08-22T13:51:59.465Z,100094.50
2022-08-22T13:57:05.560Z,100096.03
2022-08-22T14:02:18.630Z,100098.06
2022-08-22T14:07:38.048Z,100102.25
2022-08-22T14:12:50.131Z,100084.66
2022-08-22T14:18:00.800Z,100088.59
2022-08-22T14:23:27.051Z,100080.28
2022-08-22T14:28:33.476Z,100089.69
2022-08-22T14:33:46.694Z,100086.72
2022-08-22T14:39:06.403Z,100083.47
2022-08-22T14:44:18.096Z,100093.03
2022-08-22T14:49:20.915Z,100083.84
2022-08-22T14:54:29.759Z,100083.22
2022-08-22T14:59:38.896Z,100081.88
2022-08-22T15:04:44.710Z,100079.44
2022-08-22T15:09:56.821Z,100078.41
2022-08-22T15:15:01.936Z,100080.66
2022-08-22T15:20:38.263Z,100080.09
2022-08-22T15:26:00.839Z,100088.03
2022-08-22T15:31:17.299Z,100077.25
2022-08-22T15:36:25.761Z,100085.44
2022-08-22T15:41:36.654Z,100090.22
2022-08-22T15:46:39.077Z,100090.41
2022-08-22T15:51:50.289Z,100095.03
2022-08-22T15:56:52.865Z,100078.13
2022-08-22T16:02:04.860Z,100096.69
2022-08-22T16:08:02.842Z,100108.91
2022-08-22T16:13:10.681Z,100101.59
2022-08-22T16:18:37.160Z,100112.78
2022-08-22T16:23:53.989Z,100112.13
2022-08-22T16:29:14.822Z,100120.44
2022-08-22T16:34:33.588Z,100122.53
2022-08-22T16:39:51.420Z,100124.75
2022-08-22T16:45:02.609Z,100130.34
2022-08-22T16:50:22.502Z,100124.69
2022-08-22T16:55:30.823Z,100134.84
2022-08-22T17:01:26.901Z,100135.91
2022-08-22T17:06:49.979Z,100134.19
2022-08-22T17:12:23.820Z,100145.84
2022-08-22T17:17:47.177Z,100141.56
2022-08-22T17:22:49.338Z,100148.97
2022-08-22T17:28:34.294Z,100146.47
2022-08-22T17:34:08.375Z,100145.13
2022-08-22T17:39:38.005Z,100152.25
2022-08-22T17:45:04.516Z,100139.44
2022-08-22T17:50:18.728Z,100159.13
2022-08-22T17:55:31.368Z,100147.41
2022-08-22T18:00:48.973Z,100164.84
2022-08-22T18:06:31.407Z,100136.81
2022-08-22T18:12:15.826Z,100149.91
2022-08-22T18:17:31.793Z,100161.63
2022-08-22T18:22:46.388Z,100164.34
2022-08-22T18:28:26.774Z,100162.97
2022-08-22T18:33:48.700Z,100165.44
2022-08-22T18:39:07.650Z,100160.53
2022-08-22T18:44:20.831Z,100160.50
2022-08-22T18:49:23.032Z,100159.44
2022-08-22T18:54:47.594Z,100171.41
2022-08-22T19:00:01.856Z,100169.50
2022-08-22T19:05:27.558Z,100167.06
2022-08-22T19:10:48.100Z,100168.97
2022-08-22T19:16:08.173Z,100169.50
2022-08-22T19:21:41.193Z,100171.38
2022-08-22T19:26:48.230Z,100167.78
2022-08-22T19:31:56.379Z,100174.84
2022-08-22T19:37:33.224Z,100177.34
2022-08-22T19:42:38.978Z,100163.63
2022-08-22T19:47:42.905Z,100169.34
2022-08-22T19:52:56.987Z,100172.63
2022-08-22T19:58:31.926Z,100170.97
2022-08-22T20:03:53.790Z,100170.06
2022-08-22T20:09:33.965Z,100179.13
2022-08-22T20:14:44.589Z,100180.09
2022-08-22T20:25:42.357Z,100192.00
2022-08-22T20:30:50.170Z,100198.94
2022-08-22T20:35:56.053Z,100200.25
2022-08-22T20:41:21.092Z,100203.28
2022-08-22T20:46:38.611Z,100195.50
2022-08-22T20:51:58.276Z,100215.16
2022-08-22T20:57:17.738Z,100220.84
2022-08-22T21:02:35.330Z,100213.50
2022-08-22T21:07:43.864Z,100224.81
2022-08-22T21:13:21.908Z,100223.22
2022-08-22T21:18:36.729Z,100231.09
2022-08-22T21:23:43.550Z,100230.69
2022-08-22T21:28:57.818Z,100229.31
2022-08-22T21:34:01.173Z,100228.84
2022-08-22T21:39:17.552Z,100246.34
2022-08-22T21:44:30.904Z,100239.75
2022-08-22T21:49:33.063Z,100244.16
2022-08-22T21:54:40.246Z,100255.84
2022-08-22T21:59:51.668Z,100256.25
2022-08-22T22:05:03.883Z,100264.28
2022-08-22T22:10:12.233Z,100269.97
2022-08-22T22:15:18.053Z,100273.16
2022-08-22T22:20:23.565Z,100280.16
2022-08-22T22:25:40.345Z,100283.31
2022-08-22T22:30:45.765Z,100291.97
2022-08-22T22:35:49.170Z,100273.41
2022-08-22T22:40:52.667Z,100290.31
2022-08-22T22:45:54.850Z,100279.97
2022-08-22T22:50:58.777Z,100276.44
2022-08-22T22:56:01.090Z,100279.16
2022-08-22T23:01:17.099Z,100278.94
2022-08-22T23:06:22.694Z,100272.50
2022-08-22T23:11:29.890Z,100290.31
2022-08-22T23:16:37.008Z,100284.19
2022-08-22T23:21:39.891Z,100277.31
2022-08-22T23:26:42.662Z,100288.75
2022-08-22T23:31:57.882Z,100294.28
2022-08-22T23:37:01.847Z,100288.91
2022-08-22T23:42:04.653Z,100298.28
2022-08-22T23:47:08.281Z,100286.81
2022-08-22T23:52:12.376Z,100303.00
2022-08-22T23:57:14.529Z,100307.16
